createdAt,value
2019-03-27T00:01:46.546Z,0
2019-03-27T00:02:46.457Z,0
2019-03-27T00:03:46.387Z,0
2019-03-27T00:04:46.475Z,0
2019-03-27T00:05:46.427Z,0
2019-03-27T00:06:46.480Z,0
2019-03-27T00:07:46.473Z,0
2019-03-27T00:08:46.412Z,0
2019-03-27T00:09:46.422Z,0
2019-03-27T00:10:46.510Z,0
2019-03-27T00:11:46.493Z,0
2019-03-27T00:12:46.486Z,0
2019-03-27T00:13:46.441Z,0
2019-03-27T00:14:46.470Z,0
2019-03-27T00:15:46.326Z,0
2019-03-27T00:16:46.342Z,0
2019-03-27T00:17:46.400Z,0
2019-03-27T00:18:46.449Z,0
2019-03-27T00:19:46.354Z,0
2019-03-27T00:20:46.354Z,0
2019-03-27T00:21:46.394Z,0
2019-03-27T00:22:46.347Z,0
2019-03-27T00:23:46.432Z,0
2019-03-27T00:24:46.485Z,0
2019-03-27T00:25:46.427Z,0
2019-03-27T00:26:46.492Z,0
2019-03-27T00:27:46.419Z,0
2019-03-27T00:28:46.484Z,0
2019-03-27T00:29:46.489Z,0
2019-03-27T00:30:46.417Z,0
2019-03-27T00:31:46.487Z,0
2019-03-27T00:32:46.501Z,0
2019-03-27T00:33:46.498Z,0
2019-03-27T00:34:46.485Z,0
2019-03-27T00:35:46.492Z,0
2019-03-27T00:36:46.429Z,0
2019-03-27T00:37:46.496Z,0
2019-03-27T00:38:46.506Z,0
2019-03-27T00:39:46.421Z,0
2019-03-27T00:40:46.492Z,0
2019-03-27T00:41:46.492Z,0
2019-03-27T00:42:46.439Z,0
2019-03-27T00:43:46.503Z,0
2019-03-27T00:44:46.362Z,0
2019-03-27T00:45:46.365Z,0
2019-03-27T00:46:46.480Z,0
2019-03-27T00:47:46.483Z,0
2019-03-27T00:48:46.481Z,0
2019-03-27T00:49:46.486Z,0
2019-03-27T00:50:46.488Z,0
2019-03-27T00:51:46.486Z,0
2019-03-27T00:52:46.432Z,0
2019-03-27T00:53:46.461Z,0
2019-03-27T00:54:46.512Z,0
2019-03-27T00:55:46.503Z,0
2019-03-27T00:56:46.447Z,0
2019-03-27T00:57:46.504Z,0
2019-03-27T00:58:46.504Z,0
2019-03-27T00:59:46.450Z,0
2019-03-27T01:00:46.454Z,0
2019-03-27T01:01:46.435Z,0
2019-03-27T01:02:46.506Z,0
2019-03-27T01:03:46.442Z,0
2019-03-27T01:04:46.511Z,0
2019-03-27T01:05:46.458Z,0
2019-03-27T01:06:46.442Z,0
2019-03-27T01:07:46.511Z,0
2019-03-27T01:08:46.517Z,0
2019-03-27T01:09:46.459Z,0
2019-03-27T01:10:46.464Z,0
2019-03-27T01:11:46.457Z,0
2019-03-27T01:12:46.538Z,0
2019-03-27T01:13:46.543Z,0
2019-03-27T01:14:46.522Z,0
2019-03-27T01:15:46.463Z,0
2019-03-27T01:16:46.456Z,0
2019-03-27T01:17:46.459Z,0
2019-03-27T01:18:46.464Z,0
2019-03-27T01:19:46.520Z,0
2019-03-27T01:20:46.464Z,0
2019-03-27T01:21:46.470Z,0
2019-03-27T01:22:46.454Z,0
2019-03-27T01:23:46.524Z,0
2019-03-27T01:24:46.418Z,0
2019-03-27T01:25:46.475Z,0
2019-03-27T01:26:46.472Z,0
2019-03-27T01:27:46.540Z,0
2019-03-27T01:28:46.547Z,0
2019-03-27T01:29:46.469Z,0
2019-03-27T01:30:46.537Z,0
2019-03-27T01:31:46.556Z,0
2019-03-27T01:32:46.549Z,0
2019-03-27T01:33:46.496Z,0
2019-03-27T01:34:46.461Z,0
2019-03-27T01:35:46.542Z,0
2019-03-27T01:36:46.535Z,0
2019-03-27T01:37:46.478Z,0
2019-03-27T01:38:46.541Z,0
2019-03-27T01:39:46.535Z,0
2019-03-27T01:40:46.537Z,0
2019-03-27T01:41:46.479Z,0
2019-03-27T01:42:46.583Z,0
2019-03-27T01:43:46.475Z,0
2019-03-27T01:44:46.528Z,0
2019-03-27T01:45:52.928Z,0
2019-03-27T01:46:46.458Z,0
2019-03-27T01:47:46.434Z,0
2019-03-27T01:48:46.435Z,0
2019-03-27T01:49:46.480Z,0
2019-03-27T01:50:46.481Z,0
2019-03-27T01:51:46.434Z,0
2019-03-27T01:52:46.414Z,0
2019-03-27T01:53:46.468Z,0
2019-03-27T01:54:46.482Z,0
2019-03-27T01:55:46.476Z,0
2019-03-27T01:56:46.547Z,0
2019-03-27T01:57:46.547Z,0
2019-03-27T01:58:46.496Z,0
2019-03-27T01:59:46.498Z,0
2019-03-27T02:00:46.492Z,0
2019-03-27T02:01:46.553Z,0
2019-03-27T02:02:46.489Z,0
2019-03-27T02:03:46.545Z,0
2019-03-27T02:04:46.541Z,0
2019-03-27T02:05:46.482Z,0
2019-03-27T02:06:46.475Z,0
2019-03-27T02:07:46.543Z,0
2019-03-27T02:08:46.472Z,0
2019-03-27T02:09:46.473Z,0
2019-03-27T02:10:46.561Z,0
2019-03-27T02:11:46.479Z,0
2019-03-27T02:12:46.551Z,0
2019-03-27T02:13:46.512Z,0
2019-03-27T02:14:46.547Z,0
2019-03-27T02:15:46.462Z,0
2019-03-27T02:16:46.548Z,0
2019-03-27T02:17:46.512Z,0
2019-03-27T02:18:46.549Z,0
2019-03-27T02:19:46.503Z,0
2019-03-27T02:20:46.550Z,0
2019-03-27T02:21:46.549Z,0
2019-03-27T02:22:46.486Z,0
2019-03-27T02:23:46.438Z,0
2019-03-27T02:24:46.512Z,0
2019-03-27T02:25:46.505Z,0
2019-03-27T02:26:46.512Z,0
2019-03-27T02:27:46.496Z,0
2019-03-27T02:28:46.499Z,0
2019-03-27T02:29:46.571Z,0
2019-03-27T02:30:46.582Z,0
2019-03-27T02:31:46.563Z,0
2019-03-27T02:32:46.535Z,0
2019-03-27T02:33:46.508Z,0
2019-03-27T02:34:46.521Z,0
2019-03-27T02:35:46.528Z,0
2019-03-27T02:36:46.476Z,0
2019-03-27T02:37:46.541Z,0
2019-03-27T02:38:46.605Z,0
2019-03-27T02:39:46.516Z,0
2019-03-27T02:40:46.593Z,0
2019-03-27T02:41:46.592Z,0
2019-03-27T02:42:46.599Z,0
2019-03-27T02:43:46.554Z,0
2019-03-27T02:44:46.534Z,0
2019-03-27T02:45:46.514Z,0
2019-03-27T02:46:46.526Z,0
2019-03-27T02:47:46.526Z,0
2019-03-27T02:48:46.596Z,0
2019-03-27T02:49:46.544Z,0
2019-03-27T02:50:46.595Z,0
2019-03-27T02:51:46.528Z,0
2019-03-27T02:52:46.527Z,0
2019-03-27T02:53:46.591Z,0
2019-03-27T02:54:46.519Z,0
2019-03-27T02:55:46.469Z,0
2019-03-27T02:56:46.543Z,0
2019-03-27T02:57:46.491Z,0
2019-03-27T02:58:46.534Z,0
2019-03-27T02:59:46.576Z,0
2019-03-27T03:00:46.439Z,0
2019-03-27T03:01:48.172Z,0
2019-03-27T03:02:46.558Z,0
2019-03-27T03:03:46.493Z,0
2019-03-27T03:04:46.480Z,0
2019-03-27T03:05:46.774Z,0
2019-03-27T03:06:46.626Z,0
2019-03-27T03:07:46.559Z,0
2019-03-27T03:08:46.493Z,0
2019-03-27T03:09:46.555Z,0
2019-03-27T03:10:46.579Z,0
2019-03-27T03:11:46.549Z,0
2019-03-27T03:12:46.616Z,0
2019-03-27T03:13:46.594Z,0
2019-03-27T03:14:46.497Z,0
2019-03-27T03:15:46.563Z,0
2019-03-27T03:16:46.613Z,0
2019-03-27T03:17:46.583Z,0
2019-03-27T03:18:46.554Z,0
2019-03-27T03:19:46.557Z,0
2019-03-27T03:20:46.494Z,0
2019-03-27T03:21:46.556Z,0
2019-03-27T03:22:46.631Z,0
2019-03-27T03:23:46.565Z,0
2019-03-27T03:24:46.616Z,0
2019-03-27T03:25:46.553Z,0
2019-03-27T03:26:50.497Z,0
2019-03-27T03:27:46.610Z,0
2019-03-27T03:28:46.616Z,0
2019-03-27T03:29:46.545Z,0
2019-03-27T03:30:46.625Z,0
2019-03-27T03:31:46.626Z,0
2019-03-27T03:32:46.625Z,0
2019-03-27T03:33:46.616Z,0
2019-03-27T03:34:46.690Z,0
2019-03-27T03:35:46.597Z,0
2019-03-27T03:36:46.609Z,0
2019-03-27T03:37:46.585Z,0
2019-03-27T03:38:46.558Z,0
2019-03-27T03:39:46.606Z,0
2019-03-27T03:40:46.646Z,0
2019-03-27T03:41:46.599Z,0
2019-03-27T03:42:46.606Z,0
2019-03-27T03:43:46.589Z,0
2019-03-27T03:44:46.600Z,0
2019-03-27T03:45:46.574Z,0
2019-03-27T03:46:58.814Z,0
2019-03-27T03:47:46.635Z,0
2019-03-27T03:48:46.565Z,0
2019-03-27T03:49:46.518Z,0
2019-03-27T03:50:46.674Z,0
2019-03-27T03:51:46.636Z,0
2019-03-27T03:52:46.575Z,0
2019-03-27T03:53:46.646Z,0
2019-03-27T03:54:46.635Z,0
2019-03-27T03:55:46.666Z,0
2019-03-27T03:56:46.595Z,0
2019-03-27T03:57:46.828Z,0
2019-03-27T03:58:46.648Z,0
2019-03-27T03:59:46.584Z,0
2019-03-27T04:00:46.661Z,0
2019-03-27T04:01:46.587Z,0
2019-03-27T04:02:46.630Z,0
2019-03-27T04:03:46.588Z,0
2019-03-27T04:04:46.599Z,0
2019-03-27T04:05:46.642Z,0
2019-03-27T04:06:46.646Z,0
2019-03-27T04:07:46.534Z,0
2019-03-27T04:08:46.588Z,0
2019-03-27T04:09:46.673Z,0
2019-03-27T04:10:46.643Z,0
2019-03-27T04:11:46.572Z,0
2019-03-27T04:12:46.594Z,0
2019-03-27T04:13:46.647Z,0
2019-03-27T04:14:46.660Z,0
2019-03-27T04:15:46.597Z,0
2019-03-27T04:16:46.650Z,0
2019-03-27T04:17:46.659Z,0
2019-03-27T04:18:46.651Z,0
2019-03-27T04:19:46.591Z,0
2019-03-27T04:20:46.599Z,0
2019-03-27T04:21:46.657Z,0
2019-03-27T04:22:46.650Z,0
2019-03-27T04:23:46.657Z,0
2019-03-27T04:24:46.546Z,0
2019-03-27T04:26:07.926Z,0
2019-03-27T04:26:46.592Z,0
2019-03-27T04:27:46.585Z,0
2019-03-27T04:28:46.661Z,0
2019-03-27T04:29:46.628Z,0
2019-03-27T04:30:46.601Z,0
2019-03-27T04:31:46.586Z,0
2019-03-27T04:32:46.625Z,0
2019-03-27T04:33:46.658Z,0
2019-03-27T04:34:47.417Z,0
2019-03-27T04:35:46.725Z,4
2019-03-27T04:36:46.609Z,4
2019-03-27T04:37:46.594Z,4
2019-03-27T04:38:46.658Z,0
2019-03-27T04:39:46.662Z,4
2019-03-27T04:40:46.593Z,4
2019-03-27T04:41:46.606Z,4
2019-03-27T04:42:46.563Z,8
2019-03-27T04:43:46.595Z,8
2019-03-27T04:44:46.662Z,12
2019-03-27T04:45:46.585Z,12
2019-03-27T04:46:46.666Z,16
2019-03-27T04:47:46.592Z,16
2019-03-27T04:48:46.662Z,24
2019-03-27T04:49:46.590Z,28
2019-03-27T04:50:46.662Z,36
2019-03-27T04:51:46.658Z,40
2019-03-27T04:52:46.659Z,48
2019-03-27T04:53:46.597Z,56
2019-03-27T04:54:46.664Z,64
2019-03-27T04:55:46.618Z,76
2019-03-27T04:56:46.673Z,88
2019-03-27T04:57:46.632Z,96
2019-03-27T04:58:46.686Z,108
2019-03-27T04:59:46.688Z,128
2019-03-27T05:00:46.687Z,152
2019-03-27T05:01:46.606Z,172
2019-03-27T05:02:46.679Z,192
2019-03-27T05:03:46.694Z,208
2019-03-27T05:04:46.615Z,224
2019-03-27T05:05:46.670Z,240
2019-03-27T05:06:46.599Z,260
2019-03-27T05:07:46.598Z,280
2019-03-27T05:08:46.612Z,296
2019-03-27T05:09:46.613Z,316
2019-03-27T05:10:46.674Z,352
2019-03-27T05:11:46.613Z,392
2019-03-27T05:12:46.611Z,440
2019-03-27T05:13:46.676Z,480
2019-03-27T05:14:46.723Z,520
2019-03-27T05:15:46.689Z,580
2019-03-27T05:16:46.629Z,640
2019-03-27T05:17:46.758Z,712
2019-03-27T05:18:46.697Z,788
2019-03-27T05:19:46.641Z,872
2019-03-27T05:20:46.708Z,972
2019-03-27T05:21:46.643Z,1108
2019-03-27T05:22:46.652Z,1232
2019-03-27T05:23:46.705Z,1372
2019-03-27T05:24:46.701Z,1524
2019-03-27T05:25:46.638Z,1724
2019-03-27T05:26:46.626Z,1920
2019-03-27T05:27:46.692Z,2064
2019-03-27T05:28:46.697Z,2164
2019-03-27T05:29:46.693Z,2216
2019-03-27T05:30:46.701Z,2276
2019-03-27T05:31:46.633Z,2332
2019-03-27T05:32:46.696Z,2392
2019-03-27T05:33:46.629Z,2432
2019-03-27T05:34:46.759Z,2472
2019-03-27T05:35:46.701Z,2520
2019-03-27T05:36:46.678Z,2596
2019-03-27T05:37:46.700Z,2696
2019-03-27T05:38:46.662Z,2772
2019-03-27T05:39:46.705Z,2820
2019-03-27T05:40:46.632Z,2852
2019-03-27T05:41:46.665Z,2804
2019-03-27T05:42:59.734Z,2792
2019-03-27T05:43:46.633Z,2892
2019-03-27T05:44:46.708Z,3072
2019-03-27T05:45:46.643Z,3328
2019-03-27T05:46:46.683Z,3532
2019-03-27T05:47:58.958Z,3624
2019-03-27T05:48:46.624Z,3736
2019-03-27T05:49:46.639Z,3824
2019-03-27T05:50:46.694Z,3864
2019-03-27T05:51:46.611Z,3900
2019-03-27T05:52:46.703Z,4036
2019-03-27T05:53:46.695Z,4220
2019-03-27T05:54:46.633Z,4564
2019-03-27T05:55:46.707Z,4916
2019-03-27T05:56:46.633Z,5188
2019-03-27T05:57:46.641Z,5652
2019-03-27T05:58:46.711Z,5996
2019-03-27T05:59:46.711Z,6088
2019-03-27T06:00:46.716Z,5684
2019-03-27T06:01:46.635Z,5260
2019-03-27T06:02:46.715Z,5076
2019-03-27T06:03:46.722Z,5092
2019-03-27T06:04:46.741Z,5308
2019-03-27T06:05:46.640Z,5384
2019-03-27T06:06:46.712Z,5332
2019-03-27T06:07:46.650Z,5148
2019-03-27T06:08:46.716Z,4900
2019-03-27T06:09:46.648Z,4988
2019-03-27T06:10:46.718Z,5496
2019-03-27T06:11:46.658Z,5844
2019-03-27T06:12:46.779Z,5976
2019-03-27T06:13:46.716Z,6260
2019-03-27T06:14:46.656Z,6800
2019-03-27T06:15:46.720Z,7112
2019-03-27T06:16:46.654Z,7360
2019-03-27T06:17:46.720Z,7488
2019-03-27T06:18:46.648Z,7524
2019-03-27T06:19:46.722Z,7488
2019-03-27T06:20:46.814Z,7516
2019-03-27T06:21:46.648Z,7508
2019-03-27T06:22:46.653Z,7628
2019-03-27T06:23:46.725Z,7788
2019-03-27T06:24:46.654Z,8076
2019-03-27T06:25:46.741Z,8548
2019-03-27T06:26:46.685Z,9056
2019-03-27T06:27:46.662Z,9536
2019-03-27T06:28:46.668Z,9852
2019-03-27T06:29:46.664Z,10064
2019-03-27T06:30:46.749Z,10292
2019-03-27T06:31:46.667Z,10264
2019-03-27T06:32:46.668Z,10136
2019-03-27T06:33:46.739Z,9904
2019-03-27T06:34:46.669Z,9684
2019-03-27T06:35:46.719Z,9728
2019-03-27T06:36:46.723Z,10068
2019-03-27T06:37:46.733Z,10280
2019-03-27T06:38:46.663Z,10460
2019-03-27T06:39:46.613Z,10740
2019-03-27T06:40:46.612Z,11096
2019-03-27T06:41:46.730Z,11412
2019-03-27T06:42:46.678Z,11992
2019-03-27T06:43:46.724Z,13072
2019-03-27T06:44:46.705Z,13840
2019-03-27T06:45:46.682Z,14372
2019-03-27T06:46:46.753Z,14632
2019-03-27T06:47:46.688Z,15452
2019-03-27T06:48:46.754Z,15584
2019-03-27T06:49:46.690Z,15572
2019-03-27T06:50:46.696Z,15744
2019-03-27T06:51:46.683Z,16172
2019-03-27T06:52:46.770Z,16548
2019-03-27T06:53:46.758Z,17100
2019-03-27T06:54:46.688Z,17676
2019-03-27T06:55:46.698Z,18280
2019-03-27T06:56:46.705Z,18804
2019-03-27T06:57:46.672Z,19140
2019-03-27T06:58:54.382Z,19500
2019-03-27T06:59:46.688Z,19728
2019-03-27T07:00:46.765Z,20284
2019-03-27T07:01:46.703Z,21216
2019-03-27T07:02:46.770Z,22272
2019-03-27T07:03:46.702Z,22848
2019-03-27T07:04:46.766Z,23776
2019-03-27T07:05:46.678Z,24128
2019-03-27T07:06:46.753Z,25152
2019-03-27T07:07:46.797Z,26048
2019-03-27T07:08:46.761Z,26752
2019-03-27T07:09:46.733Z,26592
2019-03-27T07:10:46.647Z,28000
2019-03-27T07:11:46.686Z,26720
2019-03-27T07:12:46.845Z,25984
2019-03-27T07:13:46.760Z,25984
2019-03-27T07:14:46.686Z,25920
2019-03-27T07:15:46.741Z,26336
2019-03-27T07:16:46.775Z,26944
2019-03-27T07:17:46.707Z,27808
2019-03-27T07:18:46.778Z,29600
2019-03-27T07:19:46.715Z,30304
2019-03-27T07:20:46.706Z,32576
2019-03-27T07:21:46.781Z,35648
2019-03-27T07:22:46.707Z,35104
2019-03-27T07:23:46.708Z,37952
2019-03-27T07:24:46.784Z,34720
2019-03-27T07:25:46.781Z,37568
2019-03-27T07:26:46.702Z,32160
2019-03-27T07:27:46.705Z,31552
2019-03-27T07:28:46.774Z,30944
2019-03-27T07:29:46.773Z,27520
2019-03-27T07:30:46.703Z,25568
2019-03-27T07:31:46.773Z,24672
2019-03-27T07:32:46.704Z,24608
2019-03-27T07:33:46.774Z,25248
2019-03-27T07:34:46.701Z,26176
2019-03-27T07:35:46.735Z,27200
2019-03-27T07:36:46.739Z,26976
2019-03-27T07:37:46.785Z,26176
2019-03-27T07:38:46.788Z,26816
2019-03-27T07:39:46.789Z,27776
2019-03-27T07:40:46.725Z,28544
2019-03-27T07:41:46.807Z,28992
2019-03-27T07:42:46.805Z,29344
2019-03-27T07:43:46.723Z,29568
2019-03-27T07:44:46.821Z,29408
2019-03-27T07:45:46.729Z,28992
2019-03-27T07:46:46.664Z,29120
2019-03-27T07:47:48.210Z,28672
2019-03-27T07:48:53.820Z,28384
2019-03-27T07:49:46.689Z,29120
2019-03-27T07:50:46.723Z,28704
2019-03-27T07:51:46.769Z,29088
2019-03-27T07:52:46.720Z,28416
2019-03-27T07:53:46.702Z,28000
2019-03-27T07:54:46.668Z,28544
2019-03-27T07:55:46.727Z,28960
2019-03-27T07:56:46.799Z,28000
2019-03-27T07:57:46.731Z,27104
2019-03-27T07:58:46.801Z,27008
2019-03-27T07:59:46.871Z,26144
2019-03-27T08:00:46.811Z,26016
2019-03-27T08:01:46.736Z,26144
2019-03-27T08:02:46.751Z,25984
2019-03-27T08:03:46.737Z,26720
2019-03-27T08:04:46.809Z,26784
2019-03-27T08:05:46.655Z,27456
2019-03-27T08:06:46.679Z,29120
2019-03-27T08:07:46.651Z,28896
2019-03-27T08:08:46.779Z,27968
2019-03-27T08:09:46.723Z,27488
2019-03-27T08:10:46.727Z,28800
2019-03-27T08:11:46.684Z,30944
2019-03-27T08:12:46.657Z,32224
2019-03-27T08:13:46.735Z,32128
2019-03-27T08:14:46.714Z,32224
2019-03-27T08:15:46.754Z,32032
2019-03-27T08:16:46.814Z,32064
2019-03-27T08:17:46.748Z,32608
2019-03-27T08:18:46.746Z,33728
2019-03-27T08:19:46.824Z,34272
2019-03-27T08:20:46.747Z,33728
2019-03-27T08:21:46.819Z,33984
2019-03-27T08:22:46.756Z,34656
2019-03-27T08:23:46.822Z,35264
2019-03-27T08:24:46.843Z,34880
2019-03-27T08:25:46.748Z,35072
2019-03-27T08:26:46.828Z,35552
2019-03-27T08:27:46.830Z,36640
2019-03-27T08:28:46.827Z,38880
2019-03-27T08:29:46.831Z,39520
2019-03-27T08:30:46.759Z,39936
2019-03-27T08:31:46.824Z,39040
2019-03-27T08:32:46.944Z,37504
2019-03-27T08:33:46.825Z,36544
2019-03-27T08:34:46.830Z,35744
2019-03-27T08:35:46.807Z,35520
2019-03-27T08:36:46.736Z,35072
2019-03-27T08:37:46.785Z,34304
2019-03-27T08:38:46.719Z,33792
2019-03-27T08:39:46.821Z,32896
2019-03-27T08:40:46.729Z,32544
2019-03-27T08:41:46.760Z,32800
2019-03-27T08:42:46.817Z,33792
2019-03-27T08:43:46.817Z,36032
2019-03-27T08:44:46.703Z,38144
2019-03-27T08:45:46.725Z,39424
2019-03-27T08:46:46.853Z,40384
2019-03-27T08:47:46.840Z,40480
2019-03-27T08:48:46.768Z,40064
2019-03-27T08:49:46.837Z,39936
2019-03-27T08:50:46.837Z,41888
2019-03-27T08:51:46.846Z,42528
2019-03-27T08:52:46.781Z,43840
2019-03-27T08:53:46.770Z,45760
2019-03-27T08:54:46.775Z,46240
2019-03-27T08:55:46.733Z,44544
2019-03-27T08:56:46.812Z,42496
2019-03-27T08:57:46.776Z,41152
2019-03-27T08:58:46.772Z,40800
2019-03-27T08:59:46.781Z,41728
2019-03-27T09:00:46.733Z,43872
2019-03-27T09:01:46.788Z,46560
2019-03-27T09:02:46.783Z,47552
2019-03-27T09:03:46.775Z,46176
2019-03-27T09:04:46.739Z,44832
2019-03-27T09:05:46.781Z,43712
2019-03-27T09:06:46.774Z,42912
2019-03-27T09:07:46.823Z,44512
2019-03-27T09:08:46.846Z,42976
2019-03-27T09:09:46.772Z,41440
2019-03-27T09:10:46.841Z,40512
2019-03-27T09:11:46.833Z,40352
2019-03-27T09:12:46.773Z,42336
2019-03-27T09:13:46.753Z,41920
2019-03-27T09:14:46.753Z,42656
2019-03-27T09:15:46.794Z,42656
2019-03-27T09:16:46.862Z,41856
2019-03-27T09:17:46.860Z,39712
2019-03-27T09:18:46.806Z,35872
2019-03-27T09:19:46.790Z,32672
2019-03-27T09:20:46.871Z,31232
2019-03-27T09:21:46.862Z,31136
2019-03-27T09:22:46.865Z,32288
2019-03-27T09:23:46.809Z,34848
2019-03-27T09:24:46.874Z,37216
2019-03-27T09:25:46.863Z,39040
2019-03-27T09:26:46.826Z,40096
2019-03-27T09:27:46.869Z,42016
2019-03-27T09:28:46.798Z,47232
2019-03-27T09:29:46.858Z,44768
2019-03-27T09:30:46.847Z,46720
2019-03-27T09:31:46.867Z,50112
2019-03-27T09:32:46.869Z,47552
2019-03-27T09:33:46.870Z,45440
2019-03-27T09:34:46.858Z,44992
2019-03-27T09:35:46.828Z,45824
2019-03-27T09:36:46.804Z,51840
2019-03-27T09:37:46.869Z,41216
2019-03-27T09:38:46.764Z,39936
2019-03-27T09:39:46.873Z,41312
2019-03-27T09:40:46.806Z,42144
2019-03-27T09:41:46.803Z,44800
2019-03-27T09:42:46.884Z,48480
2019-03-27T09:43:46.876Z,59008
2019-03-27T09:44:46.877Z,135904
2019-03-27T09:45:46.828Z,121504
2019-03-27T09:46:46.795Z,52128
2019-03-27T09:47:46.868Z,45440
2019-03-27T09:48:46.871Z,50784
2019-03-27T09:49:49.954Z,46336
2019-03-27T09:50:46.905Z,45152
2019-03-27T09:51:46.806Z,48896
2019-03-27T09:52:46.798Z,63328
2019-03-27T09:53:46.801Z,79840
2019-03-27T09:54:46.874Z,75616
2019-03-27T09:55:46.801Z,103776
2019-03-27T09:56:46.829Z,48768
2019-03-27T09:57:46.818Z,42304
2019-03-27T09:58:46.893Z,39104
2019-03-27T09:59:46.887Z,36448
2019-03-27T10:00:46.930Z,32352
2019-03-27T10:01:46.832Z,32064
2019-03-27T10:02:46.903Z,37920
2019-03-27T10:03:46.854Z,45568
2019-03-27T10:04:46.825Z,66976
2019-03-27T10:05:46.892Z,128896
2019-03-27T10:06:46.884Z,106688
2019-03-27T10:07:46.816Z,56672
2019-03-27T10:08:46.885Z,50176
2019-03-27T10:09:50.121Z,48704
2019-03-27T10:10:46.898Z,95360
2019-03-27T10:11:46.812Z,55776
2019-03-27T10:12:46.885Z,64608
2019-03-27T10:13:46.827Z,142944
2019-03-27T10:14:47.751Z,110112
2019-03-27T10:15:46.915Z,106720
2019-03-27T10:16:46.877Z,58752
2019-03-27T10:17:46.788Z,50368
2019-03-27T10:18:47.620Z,97920
2019-03-27T10:19:46.820Z,57344
2019-03-27T10:20:46.768Z,136800
2019-03-27T10:21:46.802Z,133952
2019-03-27T10:22:46.858Z,59488
2019-03-27T10:23:46.808Z,48864
2019-03-27T10:24:46.773Z,101696
2019-03-27T10:25:46.927Z,108480
2019-03-27T10:26:46.837Z,70592
2019-03-27T10:27:46.907Z,57888
2019-03-27T10:28:46.911Z,53952
2019-03-27T10:29:46.918Z,62304
2019-03-27T10:30:46.837Z,154496
2019-03-27T10:31:46.842Z,159392
2019-03-27T10:32:46.842Z,108608
2019-03-27T10:33:46.912Z,55904
2019-03-27T10:34:46.923Z,71104
2019-03-27T10:35:46.846Z,53824
2019-03-27T10:36:46.886Z,54464
2019-03-27T10:37:46.881Z,61920
2019-03-27T10:38:46.800Z,144480
2019-03-27T10:39:46.906Z,147552
2019-03-27T10:40:46.908Z,124128
2019-03-27T10:41:46.810Z,143968
2019-03-27T10:42:46.785Z,79584
2019-03-27T10:43:46.815Z,62368
2019-03-27T10:44:46.778Z,81920
2019-03-27T10:45:46.840Z,98176
2019-03-27T10:46:46.928Z,97088
2019-03-27T10:47:46.879Z,111264
2019-03-27T10:48:52.954Z,112928
2019-03-27T10:49:46.914Z,93600
2019-03-27T10:50:46.883Z,89696
2019-03-27T10:51:46.877Z,99264
2019-03-27T10:52:46.927Z,102784
2019-03-27T10:53:46.931Z,111456
2019-03-27T10:54:46.928Z,116768
2019-03-27T10:55:46.983Z,131040
2019-03-27T10:56:46.899Z,129472
2019-03-27T10:57:46.785Z,124416
2019-03-27T10:58:46.881Z,135840
2019-03-27T10:59:46.787Z,146112
2019-03-27T11:00:46.862Z,140288
2019-03-27T11:01:46.908Z,148960
2019-03-27T11:02:46.882Z,137216
2019-03-27T11:03:46.847Z,153280
2019-03-27T11:04:46.880Z,122656
2019-03-27T11:05:46.886Z,134240
2019-03-27T11:06:46.933Z,108736
2019-03-27T11:07:46.860Z,148800
2019-03-27T11:08:46.926Z,148000
2019-03-27T11:09:46.929Z,147648
2019-03-27T11:10:46.894Z,55264
2019-03-27T11:11:46.940Z,113440
2019-03-27T11:12:46.862Z,90240
2019-03-27T11:13:46.933Z,54304
2019-03-27T11:14:46.842Z,132224
2019-03-27T11:15:46.977Z,133248
2019-03-27T11:16:46.946Z,123776
2019-03-27T11:17:46.882Z,132928
2019-03-27T11:18:46.950Z,121344
2019-03-27T11:19:46.876Z,86496
2019-03-27T11:20:46.874Z,78592
2019-03-27T11:21:46.954Z,86496
2019-03-27T11:23:46.880Z,63584
2019-03-27T11:24:46.982Z,93952
2019-03-27T11:25:46.951Z,91200
2019-03-27T11:26:46.850Z,107168
2019-03-27T11:27:46.852Z,111136
2019-03-27T11:28:46.867Z,143104
2019-03-27T11:29:46.855Z,129504
2019-03-27T11:30:48.568Z,125760
2019-03-27T11:31:46.971Z,123456
2019-03-27T11:32:46.939Z,113696
2019-03-27T11:33:46.948Z,99104
2019-03-27T11:34:46.873Z,97536
2019-03-27T11:35:46.868Z,102720
2019-03-27T11:36:46.827Z,108960
2019-03-27T11:37:46.938Z,91456
2019-03-27T11:38:46.862Z,94240
2019-03-27T11:39:46.902Z,121184
2019-03-27T11:40:46.952Z,127616
2019-03-27T11:41:46.875Z,125312
2019-03-27T11:42:46.921Z,127648
2019-03-27T11:43:54.627Z,131840
2019-03-27T11:44:46.959Z,111968
2019-03-27T11:45:48.749Z,135968
2019-03-27T11:46:46.924Z,139776
2019-03-27T11:47:46.834Z,101536
2019-03-27T11:48:46.961Z,113952
2019-03-27T11:49:46.902Z,90432
2019-03-27T11:50:46.842Z,92352
2019-03-27T11:51:46.853Z,93312
2019-03-27T11:52:46.957Z,90496
2019-03-27T11:53:46.855Z,82080
2019-03-27T11:54:46.832Z,77056
2019-03-27T11:55:46.945Z,75392
2019-03-27T11:56:47.014Z,76096
2019-03-27T11:57:46.898Z,103264
2019-03-27T11:58:46.902Z,91104
2019-03-27T11:59:53.943Z,76736
2019-03-27T12:00:54.386Z,71616
2019-03-27T12:01:46.900Z,70880
2019-03-27T12:02:46.973Z,77920
2019-03-27T12:03:46.977Z,76608
2019-03-27T12:04:46.979Z,67456
2019-03-27T12:05:46.909Z,66976
2019-03-27T12:06:46.983Z,62848
2019-03-27T12:07:46.910Z,61504
2019-03-27T12:08:46.907Z,60384
2019-03-27T12:09:46.912Z,58208
2019-03-27T12:10:46.976Z,59392
2019-03-27T12:11:46.992Z,65440
2019-03-27T12:12:48.327Z,76384
2019-03-27T12:13:46.983Z,82304
2019-03-27T12:14:46.983Z,80928
2019-03-27T12:15:46.980Z,77504
2019-03-27T12:16:49.843Z,72064
2019-03-27T12:17:46.910Z,65920
2019-03-27T12:18:46.902Z,72896
2019-03-27T12:19:46.937Z,73184
2019-03-27T12:20:58.322Z,67872
2019-03-27T12:21:46.848Z,67744
2019-03-27T12:22:57.301Z,67168
2019-03-27T12:23:46.853Z,64640
2019-03-27T12:24:46.907Z,76128
2019-03-27T12:25:46.939Z,81824
2019-03-27T12:26:46.934Z,58816
2019-03-27T12:27:46.990Z,60192
2019-03-27T12:28:47.001Z,63712
2019-03-27T12:29:46.936Z,66208
2019-03-27T12:30:46.961Z,71616
2019-03-27T12:31:46.994Z,131904
2019-03-27T12:32:46.993Z,74272
2019-03-27T12:33:47.001Z,80704
2019-03-27T12:34:47.001Z,67168
2019-03-27T12:35:46.993Z,90784
2019-03-27T12:36:46.953Z,81312
2019-03-27T12:37:46.995Z,106208
2019-03-27T12:38:46.918Z,119712
2019-03-27T12:39:46.995Z,82560
2019-03-27T12:40:46.921Z,94400
2019-03-27T12:41:46.992Z,99584
2019-03-27T12:42:46.989Z,119776
2019-03-27T12:43:46.907Z,92832
2019-03-27T12:44:46.997Z,102720
2019-03-27T12:45:46.996Z,94368
2019-03-27T12:46:46.952Z,112544
2019-03-27T12:47:46.863Z,108480
2019-03-27T12:48:46.899Z,91232
2019-03-27T12:49:46.940Z,90112
2019-03-27T12:50:46.933Z,82272
2019-03-27T12:51:46.954Z,78816
2019-03-27T12:52:46.961Z,79104
2019-03-27T12:53:46.955Z,79072
2019-03-27T12:54:46.872Z,75104
2019-03-27T12:55:47.061Z,72576
2019-03-27T12:56:47.014Z,72672
2019-03-27T12:57:46.945Z,74560
2019-03-27T12:58:47.011Z,78176
2019-03-27T12:59:47.015Z,78432
2019-03-27T13:00:47.017Z,76544
2019-03-27T13:01:46.950Z,73856
2019-03-27T13:02:46.944Z,71040
2019-03-27T13:03:47.017Z,71392
2019-03-27T13:04:46.951Z,70176
2019-03-27T13:05:47.019Z,70272
2019-03-27T13:06:46.949Z,69344
2019-03-27T13:07:50.141Z,67968
2019-03-27T13:08:49.456Z,65600
2019-03-27T13:09:46.960Z,61472
2019-03-27T13:10:47.022Z,58528
2019-03-27T13:11:46.969Z,56640
2019-03-27T13:12:46.980Z,55168
2019-03-27T13:13:47.023Z,54560
2019-03-27T13:14:46.963Z,54240
2019-03-27T13:15:46.921Z,53856
2019-03-27T13:16:46.954Z,52384
2019-03-27T13:17:46.963Z,49920
2019-03-27T13:18:47.029Z,47584
2019-03-27T13:19:47.034Z,46432
2019-03-27T13:20:46.971Z,46368
2019-03-27T13:21:46.963Z,46624
2019-03-27T13:22:47.016Z,46240
2019-03-27T13:23:47.032Z,45472
2019-03-27T13:24:47.029Z,44576
2019-03-27T13:25:47.038Z,43744
2019-03-27T13:26:46.926Z,43200
2019-03-27T13:27:47.627Z,43136
2019-03-27T13:28:49.155Z,43552
2019-03-27T13:29:46.909Z,44256
2019-03-27T13:30:46.950Z,44992
2019-03-27T13:31:46.891Z,45344
2019-03-27T13:32:46.976Z,44928
2019-03-27T13:33:50.092Z,43840
2019-03-27T13:34:46.897Z,42368